createdAt,value
2019-04-13T00:01:22.977Z,14.47
2019-04-13T00:03:52.004Z,13.80
2019-04-13T00:06:28.722Z,13.70
2019-04-13T00:08:57.721Z,13.80
2019-04-13T00:11:34.813Z,12.73
2019-04-13T00:14:05.478Z,14.13
2019-04-13T00:16:34.439Z,13.77
2019-04-13T00:19:03.558Z,14.07
2019-04-13T00:21:32.537Z,13.83
2019-04-13T00:24:01.485Z,14.00
2019-04-13T00:26:30.664Z,14.40
2019-04-13T00:28:59.656Z,12.70
2019-04-13T00:31:28.584Z,13.30
2019-04-13T00:33:57.622Z,14.10
2019-04-13T00:36:26.583Z,13.23
2019-04-13T00:38:55.550Z,13.80
2019-04-13T00:41:24.522Z,14.13
2019-04-13T00:43:53.606Z,13.70
2019-04-13T00:46:22.560Z,13.77
2019-04-13T00:48:51.658Z,13.87
2019-04-13T00:51:20.687Z,13.77
2019-04-13T00:53:49.695Z,14.43
2019-04-13T00:56:18.668Z,14.30
2019-04-13T00:58:47.737Z,13.10
2019-04-13T01:01:16.691Z,13.77
2019-04-13T01:03:45.745Z,13.17
2019-04-13T01:06:14.641Z,15.00
2019-04-13T01:08:43.635Z,14.20
2019-04-13T01:11:12.537Z,13.90
2019-04-13T01:13:41.458Z,13.70
2019-04-13T01:16:10.548Z,13.60
2019-04-13T01:18:39.540Z,14.53
2019-04-13T01:21:08.497Z,14.03
2019-04-13T01:23:37.576Z,14.20
2019-04-13T01:26:06.458Z,13.10
2019-04-13T01:28:35.525Z,13.60
2019-04-13T01:31:04.504Z,13.70
2019-04-13T01:33:33.328Z,13.90
2019-04-13T01:36:02.305Z,14.27
2019-04-13T01:38:31.289Z,13.33
2019-04-13T01:41:00.220Z,13.47
2019-04-13T01:43:29.096Z,13.47
2019-04-13T01:45:58.156Z,14.43
2019-04-13T01:48:27.245Z,13.87
2019-04-13T01:50:56.081Z,12.17
2019-04-13T01:53:25.036Z,13.97
2019-04-13T01:55:54.114Z,13.13
2019-04-13T01:58:23.059Z,12.90
2019-04-13T02:01:19.928Z,12.30
2019-04-13T02:03:59.837Z,14.60
2019-04-13T02:06:28.870Z,13.83
2019-04-13T02:09:07.884Z,13.77
2019-04-13T02:11:39.165Z,12.20
2019-04-13T02:14:08.045Z,13.40
2019-04-13T02:16:37.124Z,14.03
2019-04-13T02:19:06.197Z,13.70
2019-04-13T02:21:35.222Z,12.70
2019-04-13T02:24:04.138Z,13.00
2019-04-13T02:26:33.084Z,12.47
2019-04-13T02:29:02.092Z,12.90
2019-04-13T02:31:31.045Z,13.10
2019-04-13T02:33:59.955Z,14.30
2019-04-13T02:36:28.921Z,13.07
2019-04-13T02:38:58.915Z,12.00
2019-04-13T02:41:28.137Z,13.80
2019-04-13T02:43:56.954Z,13.00
2019-04-13T02:46:25.868Z,12.50
2019-04-13T02:48:54.848Z,13.27
2019-04-13T02:51:23.762Z,12.67
2019-04-13T02:53:52.643Z,13.90
2019-04-13T02:56:21.557Z,13.03
2019-04-13T02:58:50.411Z,14.30
2019-04-13T03:01:19.348Z,12.80
2019-04-13T03:03:48.564Z,13.50
2019-04-13T03:06:17.521Z,14.93
2019-04-13T03:08:46.499Z,13.27
2019-04-13T03:11:15.380Z,13.77
2019-04-13T03:13:44.458Z,14.10
2019-04-13T03:16:32.528Z,14.23
2019-04-13T03:19:09.331Z,13.27
2019-04-13T03:21:38.277Z,13.23
2019-04-13T03:24:08.377Z,13.23
2019-04-13T03:26:37.291Z,13.77
2019-04-13T03:29:06.348Z,14.23
2019-04-13T03:31:35.385Z,13.10
2019-04-13T03:34:04.336Z,13.63
2019-04-13T03:36:33.292Z,14.53
2019-04-13T03:39:02.125Z,15.60
2019-04-13T03:41:31.149Z,14.50
2019-04-13T03:44:00.144Z,15.80
2019-04-13T03:46:29.122Z,13.80
2019-04-13T03:48:58.175Z,13.83
2019-04-13T03:51:27.134Z,13.67
2019-04-13T03:53:56.188Z,13.80
2019-04-13T03:56:25.103Z,15.10
2019-04-13T03:58:54.250Z,15.10
2019-04-13T04:01:23.148Z,15.30
2019-04-13T04:03:52.084Z,15.00
2019-04-13T04:06:21.009Z,15.90
2019-04-13T04:08:50.018Z,14.63
2019-04-13T04:11:18.979Z,14.97
2019-04-13T04:13:47.990Z,15.53
2019-04-13T04:16:16.998Z,16.13
2019-04-13T04:18:45.933Z,15.57
2019-04-13T04:21:14.889Z,15.30
2019-04-13T04:23:43.868Z,16.70
2019-04-13T04:26:12.872Z,16.50
2019-04-13T04:28:41.901Z,17.27
2019-04-13T04:31:10.828Z,16.40
2019-04-13T04:33:39.776Z,16.10
2019-04-13T04:36:08.803Z,14.27
2019-04-13T04:38:37.776Z,16.10
2019-04-13T04:41:06.793Z,16.00
2019-04-13T04:43:35.760Z,16.60
2019-04-13T04:46:04.665Z,15.87
2019-04-13T04:48:33.634Z,16.30
2019-04-13T04:51:21.937Z,15.77
2019-04-13T04:53:50.910Z,17.60
2019-04-13T04:56:19.925Z,15.80
2019-04-13T04:58:48.960Z,16.67
2019-04-13T05:01:17.856Z,15.50
2019-04-13T05:03:46.729Z,16.37
2019-04-13T05:06:15.870Z,17.07
2019-04-13T05:08:44.837Z,18.10
2019-04-13T05:11:14.001Z,17.50
2019-04-13T05:13:43.024Z,16.47
2019-04-13T05:16:12.068Z,16.10
2019-04-13T05:18:41.041Z,16.17
2019-04-13T05:21:10.016Z,16.90
2019-04-13T05:23:38.925Z,16.43
2019-04-13T05:26:07.888Z,17.37
2019-04-13T05:28:36.847Z,17.83
2019-04-13T05:31:06.427Z,17.87
2019-04-13T05:33:35.380Z,18.10
2019-04-13T05:36:04.379Z,19.47
2019-04-13T05:38:33.523Z,17.90
2019-04-13T05:41:02.484Z,17.30
2019-04-13T05:43:31.440Z,17.90
2019-04-13T05:46:00.516Z,18.00
2019-04-13T05:48:29.396Z,17.00
2019-04-13T05:50:58.342Z,18.90
2019-04-13T05:53:27.410Z,17.77
2019-04-13T05:55:56.445Z,19.43
2019-04-13T05:58:25.491Z,18.73
2019-04-13T06:00:54.382Z,19.93
2019-04-13T06:03:23.227Z,19.27
2019-04-13T06:05:52.156Z,18.50
2019-04-13T06:08:21.127Z,17.83
2019-04-13T06:10:50.208Z,20.00
2019-04-13T06:13:19.232Z,18.50
2019-04-13T06:15:48.258Z,19.80
2019-04-13T06:18:21.093Z,19.60
2019-04-13T06:20:47.872Z,19.70
2019-04-13T06:23:19.070Z,20.30
2019-04-13T06:25:47.727Z,18.63
2019-04-13T06:28:16.686Z,19.37
2019-04-13T06:31:16.829Z,20.40
2019-04-13T06:34:13.895Z,18.90
2019-04-13T06:36:43.040Z,20.07
2019-04-13T06:39:12.565Z,20.10
2019-04-13T06:41:43.817Z,19.27
2019-04-13T06:44:12.289Z,20.23
2019-04-13T06:46:41.248Z,21.73
2019-04-13T06:49:11.618Z,20.43
2019-04-13T06:51:40.684Z,18.20
2019-04-13T06:54:09.732Z,20.37
2019-04-13T06:56:40.265Z,20.60
2019-04-13T06:59:09.224Z,19.80
2019-04-13T07:01:38.305Z,20.03
2019-04-13T07:04:07.280Z,20.70
2019-04-13T07:06:47.159Z,20.77
2019-04-13T07:09:26.271Z,20.90
2019-04-13T07:12:12.644Z,21.10
2019-04-13T07:14:41.696Z,20.40
2019-04-13T07:17:24.485Z,20.73
2019-04-13T07:19:53.403Z,20.43
2019-04-13T07:22:22.384Z,21.73
2019-04-13T07:24:51.635Z,20.07
2019-04-13T07:27:20.662Z,18.80
2019-04-13T07:29:49.791Z,21.90
2019-04-13T07:32:19.040Z,20.90
2019-04-13T07:34:47.976Z,21.07
2019-04-13T07:37:16.969Z,21.80
2019-04-13T07:39:48.075Z,19.80
2019-04-13T07:42:16.572Z,22.23
2019-04-13T07:44:50.726Z,21.77
2019-04-13T07:47:56.959Z,22.30
2019-04-13T07:51:00.069Z,21.10
2019-04-13T07:53:29.088Z,20.20
2019-04-13T07:55:59.933Z,22.27
2019-04-13T07:58:28.980Z,22.60
2019-04-13T08:00:59.341Z,22.20
2019-04-13T08:03:28.646Z,18.87
2019-04-13T08:05:57.652Z,21.57
2019-04-13T08:08:38.944Z,23.27
2019-04-13T08:10:57.308Z,21.87
2019-04-13T08:13:26.336Z,20.53
2019-04-13T08:15:58.507Z,22.67
2019-04-13T08:18:39.223Z,21.13
2019-04-13T08:21:08.439Z,20.73
2019-04-13T08:23:40.881Z,21.30
2019-04-13T08:26:09.912Z,20.63
2019-04-13T08:28:39.173Z,22.13
2019-04-13T08:31:08.305Z,21.17
2019-04-13T08:33:37.533Z,21.93
2019-04-13T08:36:06.531Z,22.20
2019-04-13T08:38:35.681Z,20.73
2019-04-13T08:41:11.346Z,23.73
2019-04-13T08:43:35.575Z,22.30
2019-04-13T08:46:04.760Z,24.07
2019-04-13T08:48:33.756Z,20.70
2019-04-13T08:51:02.792Z,21.73
2019-04-13T08:53:31.801Z,22.17
2019-04-13T08:56:00.856Z,22.07
2019-04-13T08:58:30.432Z,21.03
2019-04-13T09:00:59.737Z,22.30
2019-04-13T09:03:28.840Z,23.47
2019-04-13T09:05:57.878Z,21.37
2019-04-13T09:08:29.541Z,22.30
2019-04-13T09:10:57.967Z,20.17
2019-04-13T09:13:30.137Z,22.97
2019-04-13T09:15:57.877Z,21.83
2019-04-13T09:18:44.232Z,23.27
2019-04-13T09:21:25.575Z,22.43
2019-04-13T09:23:55.109Z,20.83
2019-04-13T09:26:24.168Z,22.97
2019-04-13T09:28:53.199Z,24.00
2019-04-13T09:31:25.074Z,24.00
2019-04-13T09:33:53.572Z,22.77
2019-04-13T09:36:22.496Z,22.73
2019-04-13T09:38:51.589Z,25.07
2019-04-13T09:41:20.651Z,23.47
2019-04-13T09:43:57.722Z,22.50
2019-04-13T09:46:26.434Z,22.13
2019-04-13T09:48:55.547Z,23.93
2019-04-13T09:51:24.552Z,24.73
2019-04-13T09:53:55.825Z,21.50
2019-04-13T09:56:36.417Z,22.37
2019-04-13T09:58:55.197Z,24.33
2019-04-13T10:01:24.208Z,24.80
2019-04-13T10:03:53.165Z,25.33
2019-04-13T10:06:22.213Z,23.60
2019-04-13T10:08:56.214Z,20.50
2019-04-13T10:11:27.944Z,22.20
2019-04-13T10:14:15.634Z,23.63
2019-04-13T10:17:13.011Z,22.83
2019-04-13T10:19:42.233Z,23.20
2019-04-13T10:22:11.285Z,24.23
2019-04-13T10:24:40.331Z,22.10
2019-04-13T10:27:09.418Z,24.17
2019-04-13T10:29:38.758Z,23.87
2019-04-13T10:32:07.920Z,23.30
2019-04-13T10:34:38.481Z,24.27
2019-04-13T10:37:07.441Z,22.90
2019-04-13T10:39:36.643Z,20.80
2019-04-13T10:42:05.637Z,24.30
2019-04-13T10:44:44.967Z,24.43
2019-04-13T10:47:35.969Z,22.33
2019-04-13T10:50:16.085Z,24.60
2019-04-13T10:52:45.211Z,22.93
2019-04-13T10:55:14.205Z,24.47
2019-04-13T10:57:43.181Z,22.30
2019-04-13T11:00:12.393Z,24.13
2019-04-13T11:02:41.362Z,24.57
2019-04-13T11:05:10.541Z,23.87
2019-04-13T11:07:39.626Z,22.87
2019-04-13T11:10:08.577Z,22.57
2019-04-13T11:12:37.728Z,24.53
2019-04-13T11:15:06.758Z,24.60
2019-04-13T11:17:35.842Z,23.70
2019-04-13T11:20:05.030Z,25.40
2019-04-13T11:22:34.172Z,24.27
2019-04-13T11:25:03.283Z,23.87
2019-04-13T11:27:36.683Z,26.07
2019-04-13T11:30:03.780Z,25.67
2019-04-13T11:32:32.793Z,24.40
2019-04-13T11:35:04.371Z,24.53
2019-04-13T11:37:35.373Z,23.70
2019-04-13T11:40:05.445Z,24.80
2019-04-13T11:43:08.889Z,25.63
2019-04-13T11:45:56.098Z,25.50
2019-04-13T11:48:58.082Z,27.50
2019-04-13T11:51:33.301Z,26.30
2019-04-13T11:54:04.227Z,25.90
2019-04-13T11:56:36.614Z,25.63
2019-04-13T11:59:04.102Z,26.07
2019-04-13T12:01:50.856Z,24.53
2019-04-13T12:04:50.861Z,26.43
2019-04-13T12:07:25.506Z,26.47
2019-04-13T12:10:12.279Z,27.87
2019-04-13T12:13:09.755Z,26.37
2019-04-13T12:16:00.982Z,25.67
2019-04-13T12:18:43.774Z,27.50
2019-04-13T12:21:31.849Z,26.80
2019-04-13T12:24:02.914Z,25.87
2019-04-13T12:26:33.288Z,27.10
2019-04-13T12:29:02.348Z,25.87
2019-04-13T12:31:31.598Z,24.90
2019-04-13T12:34:03.426Z,27.47
2019-04-13T12:36:31.557Z,27.07
2019-04-13T12:39:00.657Z,26.53
2019-04-13T12:41:37.518Z,26.43
2019-04-13T12:44:06.544Z,28.90
2019-04-13T12:46:35.956Z,29.00
2019-04-13T12:49:05.315Z,26.03
2019-04-13T12:51:34.381Z,27.23
2019-04-13T12:54:04.765Z,28.83
2019-04-13T12:56:34.038Z,28.13
2019-04-13T12:59:03.059Z,28.63
2019-04-13T13:01:51.097Z,28.23
2019-04-13T13:04:21.079Z,28.40
2019-04-13T13:06:50.152Z,28.53
2019-04-13T13:09:19.288Z,28.80
2019-04-13T13:11:48.387Z,29.20
2019-04-13T13:14:17.502Z,29.40
2019-04-13T13:16:47.194Z,28.20
2019-04-13T13:19:16.406Z,28.87
2019-04-13T13:21:45.467Z,29.03
2019-04-13T13:24:14.961Z,27.40
2019-04-13T13:26:48.453Z,28.87
2019-04-13T13:29:14.900Z,28.60
2019-04-13T13:31:44.220Z,27.93
2019-04-13T13:34:13.411Z,26.70
2019-04-13T13:36:42.620Z,28.10
2019-04-13T13:39:13.979Z,28.47
2019-04-13T13:41:42.808Z,25.97
2019-04-13T13:44:11.946Z,28.80
2019-04-13T13:46:40.931Z,28.83
2019-04-13T13:49:10.157Z,28.60
2019-04-13T13:51:39.255Z,29.33
2019-04-13T13:54:08.362Z,29.10
2019-04-13T13:56:39.104Z,29.13
2019-04-13T13:59:08.162Z,30.77
2019-04-13T14:01:47.150Z,27.40
2019-04-13T14:04:16.369Z,27.73
2019-04-13T14:06:45.401Z,27.57
2019-04-13T14:09:14.413Z,28.00
2019-04-13T14:11:43.509Z,28.53
2019-04-13T14:14:12.789Z,29.30
2019-04-13T14:16:42.415Z,27.90
2019-04-13T14:19:12.645Z,28.23
2019-04-13T14:21:41.685Z,29.77
2019-04-13T14:24:10.811Z,28.00
2019-04-13T14:26:39.874Z,28.30
2019-04-13T14:29:10.726Z,27.87
2019-04-13T14:31:39.842Z,31.03
2019-04-13T14:34:08.955Z,29.43
2019-04-13T14:36:37.978Z,31.73
2019-04-13T14:39:07.739Z,31.43
2019-04-13T14:41:41.574Z,28.63
2019-04-13T14:44:07.620Z,28.90
2019-04-13T14:46:36.883Z,28.33
2019-04-13T14:49:06.056Z,30.57
2019-04-13T14:51:35.166Z,29.27
2019-04-13T14:54:04.265Z,29.40
2019-04-13T14:56:35.586Z,30.00
2019-04-13T14:59:04.170Z,28.60
2019-04-13T15:01:33.314Z,30.17
2019-04-13T15:04:02.374Z,27.60
2019-04-13T15:06:31.404Z,28.90
2019-04-13T15:09:00.465Z,29.60
2019-04-13T15:11:29.553Z,28.87
2019-04-13T15:13:59.893Z,29.27
2019-04-13T15:16:29.506Z,28.93
2019-04-13T15:19:23.210Z,29.23
2019-04-13T15:21:43.783Z,28.70
2019-04-13T15:24:16.658Z,28.30
2019-04-13T15:26:45.693Z,26.40
2019-04-13T15:29:20.735Z,28.17
2019-04-13T15:31:48.963Z,29.43
2019-04-13T15:34:18.347Z,30.70
2019-04-13T15:36:48.519Z,28.33
2019-04-13T15:39:18.610Z,28.87
2019-04-13T15:42:01.289Z,29.97
2019-04-13T15:44:19.987Z,30.63
2019-04-13T15:46:49.196Z,28.10
2019-04-13T15:49:19.624Z,28.87
2019-04-13T15:51:49.478Z,29.93
2019-04-13T15:54:18.763Z,28.43
2019-04-13T15:56:47.834Z,29.90
2019-04-13T15:59:18.944Z,30.27
2019-04-13T16:01:48.173Z,25.10
2019-04-13T16:04:18.487Z,29.73
2019-04-13T16:06:48.576Z,27.20
2019-04-13T16:09:36.929Z,29.00
2019-04-13T16:12:10.200Z,29.80
2019-04-13T16:14:39.564Z,30.03
2019-04-13T16:17:10.168Z,29.63
2019-04-13T16:19:39.540Z,30.23
2019-04-13T16:22:09.280Z,29.73
2019-04-13T16:24:39.393Z,27.87
2019-04-13T16:27:08.530Z,30.57
2019-04-13T16:29:46.756Z,28.20
2019-04-13T16:32:47.231Z,30.03
2019-04-13T16:35:24.764Z,30.80
2019-04-13T16:37:54.831Z,30.60
2019-04-13T16:40:24.971Z,31.00
2019-04-13T16:42:55.175Z,30.00
2019-04-13T16:45:42.323Z,30.83
2019-04-13T16:48:27.840Z,31.43
2019-04-13T16:51:29.120Z,31.97
2019-04-13T16:54:45.457Z,31.27
2019-04-13T16:57:34.034Z,30.90
2019-04-13T17:00:36.468Z,28.57
2019-04-13T17:06:16.924Z,32.37
2019-04-13T17:08:58.240Z,30.90
2019-04-13T17:11:39.804Z,27.50
2019-04-13T17:14:20.914Z,29.70
2019-04-13T17:17:01.817Z,28.60
2019-04-13T17:20:01.545Z,30.00
2019-04-13T17:23:02.148Z,28.63
2019-04-13T17:32:39.239Z,29.43
2019-04-13T17:38:37.195Z,27.70
2019-04-13T17:41:46.795Z,29.00
2019-04-13T17:50:58.246Z,31.20
2019-04-13T17:54:06.120Z,31.97
2019-04-13T18:00:10.076Z,32.13
2019-04-13T18:03:17.886Z,32.83
2019-04-13T18:09:39.339Z,28.53
2019-04-13T18:12:53.354Z,29.53
2019-04-13T18:15:56.032Z,30.03
2019-04-13T18:21:38.369Z,26.87
2019-04-13T18:24:19.877Z,27.90
2019-04-13T18:27:01.419Z,27.30
2019-04-13T18:29:42.807Z,28.60
2019-04-13T18:32:23.693Z,30.47
2019-04-13T18:35:03.272Z,29.63
2019-04-13T18:37:51.755Z,26.37
2019-04-13T18:43:35.287Z,27.50
2019-04-13T18:46:24.174Z,29.20
2019-04-13T18:49:13.919Z,29.70
2019-04-13T18:51:56.654Z,28.67
2019-04-13T18:54:38.619Z,28.17
2019-04-13T18:57:20.882Z,30.40
2019-04-13T19:00:03.086Z,29.30
2019-04-13T19:02:44.233Z,30.50
2019-04-13T19:05:25.606Z,28.33
2019-04-13T19:08:06.613Z,29.83
2019-04-13T19:10:47.990Z,29.33
2019-04-13T19:13:29.146Z,28.90
2019-04-13T19:16:10.181Z,27.47
2019-04-13T19:18:51.205Z,30.70
2019-04-13T19:21:30.588Z,31.47
2019-04-13T19:24:18.815Z,29.60
2019-04-13T19:33:14.770Z,33.63
2019-04-13T19:36:03.026Z,39.80
2019-04-13T19:38:51.249Z,36.40
2019-04-13T19:44:46.948Z,33.50
2019-04-13T19:47:35.110Z,29.00
2019-04-13T19:53:36.322Z,29.47
2019-04-13T19:59:20.581Z,27.37
2019-04-13T20:02:08.835Z,36.00
2019-04-13T20:07:43.341Z,31.00
2019-04-13T20:10:23.830Z,30.57
2019-04-13T20:13:04.446Z,30.63
2019-04-13T20:15:45.075Z,42.20
2019-04-13T20:18:26.184Z,32.80
2019-04-13T20:21:07.581Z,31.00
2019-04-13T20:23:48.413Z,31.07
2019-04-13T20:26:29.833Z,34.83
2019-04-13T20:29:10.499Z,33.70
2019-04-13T20:31:52.761Z,32.73
2019-04-13T20:34:33.881Z,38.23
2019-04-13T20:37:15.248Z,32.30
2019-04-13T20:40:01.144Z,34.90
2019-04-13T20:42:42.066Z,32.03
2019-04-13T20:45:22.562Z,30.60
2019-04-13T20:48:06.014Z,34.53
2019-04-13T20:50:46.706Z,33.60
2019-04-13T20:53:28.889Z,33.57
2019-04-13T20:56:09.888Z,32.50
2019-04-13T20:58:51.122Z,31.90
2019-04-13T21:01:32.232Z,34.47
2019-04-13T21:04:13.097Z,33.30
2019-04-13T21:06:54.229Z,36.10
2019-04-13T21:09:35.204Z,38.37
2019-04-13T21:12:16.224Z,36.70
2019-04-13T21:14:57.200Z,38.57
2019-04-13T21:17:37.901Z,39.57
2019-04-13T21:20:19.124Z,32.80
2019-04-13T21:22:59.870Z,34.73
2019-04-13T21:25:42.194Z,34.07
2019-04-13T21:28:23.395Z,34.97
2019-04-13T21:31:04.304Z,35.23
2019-04-13T21:33:45.513Z,36.27
2019-04-13T21:36:26.529Z,35.90
2019-04-13T21:39:09.192Z,39.40
2019-04-13T21:41:51.923Z,37.73
2019-04-13T21:44:38.469Z,34.50
2019-04-13T21:47:16.277Z,33.47
2019-04-13T21:50:02.479Z,41.27
2019-04-13T21:52:47.702Z,33.90
2019-04-13T21:58:38.045Z,32.40
2019-04-13T22:01:21.324Z,34.87
2019-04-13T22:04:02.817Z,33.60
2019-04-13T22:06:43.754Z,34.57
2019-04-13T22:09:25.901Z,35.10
2019-04-13T22:12:07.067Z,32.40
2019-04-13T22:14:55.166Z,32.57
2019-04-13T22:17:31.465Z,34.57
2019-04-13T22:20:12.786Z,37.20
2019-04-13T22:22:53.529Z,33.37
2019-04-13T22:25:34.231Z,36.47
2019-04-13T22:28:17.790Z,34.30
2019-04-13T22:31:17.851Z,32.30
2019-04-13T22:34:01.007Z,30.10
2019-04-13T22:36:42.593Z,30.73
2019-04-13T22:39:24.836Z,30.77
2019-04-13T22:42:05.766Z,34.97
2019-04-13T22:44:54.068Z,31.93
2019-04-13T22:47:30.011Z,32.60
2019-04-13T22:50:30.542Z,34.60
2019-04-13T22:56:18.095Z,36.47
2019-04-13T22:58:47.288Z,35.33
2019-04-13T23:01:22.279Z,32.30
2019-04-13T23:03:51.466Z,33.20
2019-04-13T23:06:20.667Z,32.40
2019-04-13T23:08:50.894Z,32.20
2019-04-13T23:11:21.265Z,30.83
2019-04-13T23:13:51.647Z,31.33
2019-04-13T23:16:21.620Z,33.17
2019-04-13T23:18:51.359Z,32.40
2019-04-13T23:21:20.453Z,33.07
2019-04-13T23:23:50.500Z,32.07
2019-04-13T23:26:19.725Z,33.23
2019-04-13T23:28:49.027Z,31.10
2019-04-13T23:31:19.316Z,32.30
2019-04-13T23:33:49.572Z,32.53
2019-04-13T23:36:20.211Z,33.47
2019-04-13T23:38:49.428Z,30.20
2019-04-13T23:41:19.489Z,29.57
2019-04-13T23:43:49.500Z,30.67
2019-04-13T23:46:19.695Z,32.00
2019-04-13T23:48:48.971Z,29.43
2019-04-13T23:51:18.489Z,31.00
2019-04-13T23:53:48.737Z,29.07
2019-04-13T23:56:26.577Z,28.27
2019-04-13T23:59:17.641Z,27.37
